Time;durP1;ratioP1;P1;durP2;ratioP2;P2;SDS_P1;SDS_P2;PMS_P1;PMS_P2;Temp;Humidity;BMP_temperature;BMP_pressure;BME280_temperature;BME280_humidity;BME280_pressure;Samples;Min_cycle;Max_cycle;Signal;HPM_P1;HPM_P2
2020/12/15 00:01:06;;;;;;;4.33;2.10;;;9.50;71.70;;;;;;5034907;28;20033;-85
2020/12/15 00:03:32;;;;;;;4.77;2.10;;;9.50;71.80;;;;;;5035586;28;20036;-85
2020/12/15 00:05:57;;;;;;;5.40;2.20;;;9.50;71.90;;;;;;5017848;28;20093;-86
2020/12/15 00:10:57;;;;;;;3.00;1.63;;;9.50;72.10;;;;;;5050432;28;20036;-82
2020/12/15 00:13:23;;;;;;;3.93;2.00;;;9.50;73.00;;;;;;5019500;28;20395;-84
2020/12/15 00:15:48;;;;;;;3.87;2.17;;;9.50;73.20;;;;;;5019408;28;20071;-85
2020/12/15 00:18:14;;;;;;;3.73;1.90;;;9.50;73.60;;;;;;5019672;28;20025;-84
2020/12/15 00:20:40;;;;;;;4.33;1.90;;;9.50;74.20;;;;;;5018933;28;20028;-85
2020/12/15 00:23:07;;;;;;;2.93;1.60;;;9.50;74.30;;;;;;5036927;28;20026;-85
2020/12/15 00:25:33;;;;;;;5.80;1.70;;;9.50;74.70;;;;;;5018634;28;20052;-84
2020/12/15 00:27:58;;;;;;;4.13;2.00;;;9.50;75.10;;;;;;5037356;28;20478;-84
2020/12/15 00:30:25;;;;;;;3.63;2.00;;;9.40;75.30;;;;;;5036689;28;20035;-83
2020/12/15 00:32:51;;;;;;;3.20;2.00;;;9.50;75.40;;;;;;5037122;28;20037;-82
2020/12/15 00:35:17;;;;;;;3.43;1.80;;;9.50;75.70;;;;;;5019417;28;20037;-82
2020/12/15 00:37:43;;;;;;;6.40;2.00;;;9.40;75.10;;;;;;5036589;28;20036;-84
2020/12/15 00:40:08;;;;;;;3.67;1.83;;;9.40;76.00;;;;;;5018391;28;20482;-81
2020/12/15 00:42:34;;;;;;;4.47;2.00;;;9.40;76.10;;;;;;5036651;28;20029;-84
2020/12/15 00:45:00;;;;;;;4.60;2.03;;;9.40;75.30;;;;;;5036567;28;20029;-84
2020/12/15 00:47:25;;;;;;;3.83;1.90;;;9.40;76.10;;;;;;5036537;28;20104;-84
2020/12/15 00:49:51;;;;;;;3.33;1.77;;;9.40;77.00;;;;;;5036561;28;20029;-82
2020/12/15 00:52:17;;;;;;;2.47;1.50;;;9.40;76.90;;;;;;5036872;28;20406;-85
2020/12/15 00:54:42;;;;;;;3.50;1.80;;;9.40;77.50;;;;;;5019092;28;20033;-84
2020/12/15 00:57:08;;;;;;;4.77;1.97;;;9.40;77.90;;;;;;5036640;28;20053;-84
2020/12/15 00:59:33;;;;;;;3.53;1.77;;;9.40;77.40;;;;;;5036077;28;20034;-84
2020/12/15 01:02:03;;;;;;;3.20;1.80;;;9.30;77.90;;;;;;5036288;28;20030;-84
2020/12/15 01:04:29;;;;;;;2.93;1.83;;;9.30;78.70;;;;;;5036411;28;20390;-84
2020/12/15 01:06:55;;;;;;;3.43;1.63;;;9.30;79.80;;;;;;5036357;28;20032;-84
2020/12/15 01:09:20;;;;;;;6.10;2.40;;;9.30;80.20;;;;;;5035944;28;20079;-83
2020/12/15 01:11:46;;;;;;;4.33;2.50;;;9.20;81.30;;;;;;5037219;28;20055;-84
2020/12/15 01:14:12;;;;;;;3.80;1.90;;;9.20;81.80;;;;;;5036527;28;20108;-84
2020/12/15 01:16:40;;;;;;;4.30;2.20;;;9.20;83.00;;;;;;5036576;28;20021;-83
2020/12/15 01:19:05;;;;;;;4.60;2.00;;;9.20;83.90;;;;;;5018211;28;20028;-84
2020/12/15 01:21:31;;;;;;;3.80;2.07;;;9.10;83.50;;;;;;5036384;28;20101;-84
2020/12/15 01:23:57;;;;;;;6.00;2.17;;;9.10;84.10;;;;;;5018546;28;20062;-84
2020/12/15 01:26:23;;;;;;;4.87;2.27;;;9.10;84.60;;;;;;5036770;28;20505;-84
2020/12/15 01:28:50;;;;;;;4.97;2.20;;;9.10;85.00;;;;;;5035550;28;20025;-83
2020/12/15 01:31:22;;;;;;;4.83;2.23;;;9.00;85.30;;;;;;5018025;28;20029;-84
2020/12/15 01:33:48;;;;;;;3.40;1.80;;;9.10;86.00;;;;;;5018059;28;20026;-84
2020/12/15 01:36:13;;;;;;;4.00;2.20;;;9.00;86.10;;;;;;5018195;28;20026;-84
2020/12/15 01:38:41;;;;;;;3.57;2.20;;;9.00;86.80;;;;;;5035984;28;20032;-83
2020/12/15 01:41:06;;;;;;;4.63;2.50;;;9.00;87.50;;;;;;5035260;28;20278;-82
2020/12/15 01:43:32;;;;;;;4.37;2.20;;;8.90;87.80;;;;;;5035955;28;20025;-83
2020/12/15 01:45:58;;;;;;;4.43;2.47;;;8.90;88.60;;;;;;5017661;28;20505;-84
2020/12/15 01:48:23;;;;;;;5.60;2.83;;;8.90;88.60;;;;;;5018302;28;20078;-84
2020/12/15 01:50:49;;;;;;;4.60;2.33;;;8.80;89.00;;;;;;5034886;28;20029;-83
2020/12/15 01:53:16;;;;;;;4.30;2.17;;;8.80;89.30;;;;;;5017415;28;20087;-84
2020/12/15 01:55:41;;;;;;;4.43;2.20;;;8.80;89.50;;;;;;5017310;28;20120;-83
2020/12/15 01:58:09;;;;;;;5.20;2.60;;;8.80;89.60;;;;;;5035177;28;20112;-83
2020/12/15 02:00:34;;;;;;;5.27;2.33;;;8.80;90.00;;;;;;5017478;28;20030;-83
2020/12/15 02:03:00;;;;;;;4.83;2.20;;;8.70;90.00;;;;;;5035538;28;20033;-83
2020/12/15 02:05:25;;;;;;;6.20;2.50;;;8.80;90.00;;;;;;5035088;28;20124;-83
2020/12/15 02:07:51;;;;;;;4.50;2.50;;;8.70;90.00;;;;;;5034515;28;20033;-83
2020/12/15 02:10:17;;;;;;;5.03;2.60;;;8.70;90.10;;;;;;5016084;28;20044;-83
2020/12/15 02:12:43;;;;;;;6.17;2.40;;;8.70;90.20;;;;;;5034485;28;20417;-83
2020/12/15 02:15:09;;;;;;;5.20;2.20;;;8.80;90.20;;;;;;5016600;28;20029;-83
2020/12/15 02:17:34;;;;;;;5.13;2.20;;;8.70;90.30;;;;;;5016753;28;20025;-83
2020/12/15 02:20:10;;;;;;;4.73;2.37;;;8.70;90.20;;;;;;5015826;28;20057;-83
2020/12/15 02:22:36;;;;;;;6.73;2.60;;;8.80;90.30;;;;;;5033932;28;20022;-84
2020/12/15 02:25:06;;;;;;;4.53;2.10;;;8.80;90.00;;;;;;5033921;28;20083;-83
2020/12/15 02:27:32;;;;;;;4.23;2.07;;;8.70;90.00;;;;;;5033963;28;20040;-83
2020/12/15 02:29:58;;;;;;;4.80;2.30;;;8.70;90.00;;;;;;5033237;28;20025;-83
2020/12/15 02:32:24;;;;;;;4.70;2.10;;;8.70;90.00;;;;;;5033712;28;20033;-83
2020/12/15 02:34:57;;;;;;;4.97;2.53;;;8.80;90.00;;;;;;5033973;28;20271;-83
2020/12/15 02:37:23;;;;;;;4.50;2.00;;;8.70;89.90;;;;;;5033888;28;20033;-83
2020/12/15 02:39:48;;;;;;;3.50;2.20;;;8.80;90.10;;;;;;5033480;28;20497;-83
2020/12/15 02:42:14;;;;;;;3.53;2.30;;;8.80;90.10;;;;;;5015744;28;20470;-83
2020/12/15 02:44:39;;;;;;;5.23;2.43;;;8.80;90.10;;;;;;5017972;28;20262;-84
2020/12/15 02:47:05;;;;;;;4.70;2.13;;;8.80;90.00;;;;;;5035656;28;20059;-84
2020/12/15 02:49:31;;;;;;;5.03;2.37;;;8.80;89.80;;;;;;5034504;28;20034;-84
2020/12/15 02:51:56;;;;;;;4.80;2.20;;;8.80;90.10;;;;;;5018028;28;20481;-83
2020/12/15 02:54:22;;;;;;;4.70;2.50;;;8.80;90.10;;;;;;5035709;28;20115;-83
2020/12/15 02:56:48;;;;;;;4.43;2.43;;;8.80;90.30;;;;;;5035524;28;20036;-83
2020/12/15 02:59:13;;;;;;;8.00;3.20;;;8.70;90.30;;;;;;5016701;28;20046;-84
2020/12/15 03:01:48;;;;;;;4.97;2.13;;;8.70;90.30;;;;;;5017648;28;20037;-84
2020/12/15 03:04:13;;;;;;;5.10;2.40;;;8.70;90.40;;;;;;5036554;28;20026;-83
2020/12/15 03:06:39;;;;;;;5.03;2.37;;;8.70;90.40;;;;;;5036146;28;20041;-84
2020/12/15 03:09:06;;;;;;;4.87;2.57;;;8.70;90.60;;;;;;5018076;28;20037;-84
2020/12/15 03:11:32;;;;;;;5.10;2.47;;;8.70;90.60;;;;;;5037183;28;20037;-84
2020/12/15 03:13:58;;;;;;;5.13;2.40;;;8.70;90.50;;;;;;5019187;28;20152;-84
2020/12/15 03:16:23;;;;;;;5.17;2.43;;;8.70;90.60;;;;;;5037164;28;20030;-83
2020/12/15 03:18:49;;;;;;;3.63;2.40;;;8.70;90.60;;;;;;5040945;28;20013;-83
2020/12/15 03:21:17;;;;;;;6.13;2.63;;;8.70;90.70;;;;;;5041878;28;20029;-84
2020/12/15 03:23:43;;;;;;;5.40;2.73;;;8.70;90.60;;;;;;5041992;28;20022;-83
2020/12/15 03:26:09;;;;;;;4.67;2.67;;;8.70;90.90;;;;;;5025516;28;20101;-83
2020/12/15 03:28:34;;;;;;;5.57;2.50;;;8.70;91.00;;;;;;5041832;28;20025;-84
2020/12/15 03:31:00;;;;;;;5.67;2.53;;;8.70;90.90;;;;;;5024602;28;20538;-84
2020/12/15 03:33:26;;;;;;;4.47;2.93;;;8.70;91.00;;;;;;5025099;28;20030;-83
2020/12/15 03:35:51;;;;;;;5.43;2.57;;;8.70;91.00;;;;;;5025196;28;20168;-83
2020/12/15 03:38:17;;;;;;;6.17;2.60;;;8.70;90.90;;;;;;5043162;28;20025;-83
2020/12/15 03:40:42;;;;;;;5.60;2.50;;;8.70;91.00;;;;;;5042587;28;20056;-83
2020/12/15 03:43:08;;;;;;;5.33;2.87;;;8.70;91.00;;;;;;5023855;28;20026;-84
2020/12/15 03:45:34;;;;;;;4.57;2.50;;;8.70;91.00;;;;;;5036728;28;20041;-84
2020/12/15 03:47:59;;;;;;;6.87;2.60;;;8.80;91.00;;;;;;5036675;28;20052;-83
2020/12/15 03:50:25;;;;;;;4.67;2.67;;;8.70;90.90;;;;;;5021705;28;20501;-84
2020/12/15 03:52:51;;;;;;;5.30;2.97;;;8.70;90.90;;;;;;5041837;28;20060;-84
2020/12/15 03:55:22;;;;;;;5.03;2.90;;;8.80;90.90;;;;;;5020834;28;20482;-84
2020/12/15 03:57:49;;;;;;;4.77;2.67;;;8.70;90.80;;;;;;5033711;28;20014;-83
2020/12/15 04:00:15;;;;;;;4.03;2.40;;;8.70;90.80;;;;;;5015318;28;20052;-84
2020/12/15 04:02:41;;;;;;;6.63;2.53;;;8.70;90.80;;;;;;5015491;28;20452;-84
2020/12/15 04:05:07;;;;;;;4.20;2.30;;;8.70;90.80;;;;;;5015479;28;20037;-84
2020/12/15 04:07:32;;;;;;;4.63;3.00;;;8.70;90.70;;;;;;5015619;28;20079;-84
2020/12/15 04:09:58;;;;;;;3.87;2.47;;;8.70;90.70;;;;;;5032721;28;20041;-85
2020/12/15 04:12:23;;;;;;;6.37;2.77;;;8.70;90.80;;;;;;5033763;28;20104;-84
2020/12/15 04:14:49;;;;;;;5.43;2.80;;;8.80;90.70;;;;;;5015795;28;20183;-84
2020/12/15 04:17:14;;;;;;;4.97;2.83;;;8.80;90.60;;;;;;5034636;28;20028;-84
2020/12/15 04:19:40;;;;;;;6.67;2.90;;;8.80;90.60;;;;;;5036157;28;20100;-84
2020/12/15 04:22:06;;;;;;;5.53;2.80;;;8.70;90.70;;;;;;5036565;28;20026;-84
2020/12/15 04:24:32;;;;;;;4.93;2.60;;;8.80;90.70;;;;;;5018742;28;20078;-84
2020/12/15 04:26:58;;;;;;;4.90;2.80;;;8.80;91.00;;;;;;5019184;28;20030;-83
2020/12/15 04:29:24;;;;;;;5.07;2.60;;;8.80;90.50;;;;;;5017954;28;20034;-84
2020/12/15 04:31:50;;;;;;;4.67;2.80;;;8.80;90.70;;;;;;5037059;28;20025;-83
2020/12/15 04:34:16;;;;;;;5.53;3.07;;;8.80;90.60;;;;;;5036927;28;20025;-84
2020/12/15 04:36:41;;;;;;;5.97;3.03;;;8.70;90.60;;;;;;5036513;28;20501;-84
2020/12/15 04:39:07;;;;;;;4.50;2.97;;;8.70;90.70;;;;;;5018165;28;20036;-83
2020/12/15 04:41:33;;;;;;;5.43;2.77;;;8.80;90.70;;;;;;5018313;28;20022;-84
2020/12/15 04:43:59;;;;;;;5.17;2.80;;;8.80;90.60;;;;;;5036314;28;20032;-84
2020/12/15 04:46:28;;;;;;;5.50;2.93;;;8.80;90.50;;;;;;5036570;28;20107;-84
2020/12/15 04:49:07;;;;;;;4.85;2.95;;;8.80;90.60;;;;;;5017908;28;20112;-84
2020/12/15 04:51:58;;;;;;;5.80;3.03;;;8.80;90.60;;;;;;5036524;28;20060;-84
2020/12/15 04:54:35;;;;;;;3.90;2.60;;;8.80;90.50;;;;;;5036217;28;20493;-84
2020/12/15 04:57:02;;;;;;;4.80;2.90;;;8.80;90.50;;;;;;5018347;28;20025;-84
2020/12/15 04:59:32;;;;;;;4.30;2.70;;;8.80;90.50;;;;;;5035524;28;20018;-84
2020/12/15 05:01:59;;;;;;;5.67;2.83;;;8.80;90.60;;;;;;5036478;28;20022;-84
2020/12/15 05:04:25;;;;;;;5.73;3.30;;;8.80;90.50;;;;;;5036295;28;20439;-84
2020/12/15 05:06:55;;;;;;;5.47;2.70;;;8.80;90.60;;;;;;5036243;28;20033;-84
2020/12/15 05:09:28;;;;;;;5.13;3.10;;;8.80;90.50;;;;;;5035219;28;20103;-84
2020/12/15 05:11:54;;;;;;;4.53;2.93;;;8.70;90.60;;;;;;5035834;28;20033;-84
2020/12/15 05:14:19;;;;;;;6.20;3.10;;;8.80;90.50;;;;;;5036012;28;20545;-84
2020/12/15 05:16:45;;;;;;;6.47;3.27;;;8.80;90.50;;;;;;5035801;28;20014;-84
2020/12/15 05:19:11;;;;;;;5.27;3.50;;;8.80;90.80;;;;;;5017758;28;20033;-84
2020/12/15 05:21:36;;;;;;;5.27;3.27;;;8.80;90.50;;;;;;5035882;28;20509;-84
2020/12/15 05:24:08;;;;;;;4.83;3.10;;;8.80;90.50;;;;;;5018170;28;20061;-83
2020/12/15 05:26:34;;;;;;;5.57;3.07;;;8.80;90.50;;;;;;5017902;28;20389;-84
2020/12/15 05:29:08;;;;;;;6.43;2.93;;;8.80;90.50;;;;;;5034346;28;20029;-84
2020/12/15 05:31:43;;;;;;;5.87;3.30;;;8.80;90.60;;;;;;5036477;28;20025;-83
2020/12/15 05:34:13;;;;;;;5.73;3.27;;;8.80;90.60;;;;;;5017445;28;20486;-84
2020/12/15 05:36:48;;;;;;;;;;;8.80;90.60;;;;;;5018495;28;20482;-84
2020/12/15 05:39:14;;;;;;;6.67;3.13;;;8.80;90.60;;;;;;5016931;28;20044;-84
2020/12/15 05:41:39;;;;;;;6.23;3.00;;;8.80;90.70;;;;;;5017644;28;20057;-84
2020/12/15 05:44:05;;;;;;;6.87;3.60;;;8.80;90.70;;;;;;5035493;28;20500;-84
2020/12/15 05:46:33;;;;;;;5.67;3.77;;;8.80;90.70;;;;;;5035810;28;20108;-84
2020/12/15 05:49:06;;;;;;;7.83;3.07;;;8.80;90.80;;;;;;5034639;28;20026;-84
2020/12/15 05:51:43;;;;;;;5.37;3.40;;;8.80;90.90;;;;;;5017456;28;20037;-84
2020/12/15 05:54:13;;;;;;;5.00;3.53;;;8.90;90.90;;;;;;5017842;28;20387;-84
2020/12/15 05:56:40;;;;;;;6.23;3.43;;;8.80;90.90;;;;;;5035358;28;20097;-83
2020/12/15 05:59:20;;;;;;;5.77;3.20;;;8.90;91.00;;;;;;5016764;28;20033;-84
2020/12/15 06:01:53;;;;;;;5.60;3.70;;;8.90;91.00;;;;;;5035343;28;20160;-83
2020/12/15 06:04:19;;;;;;;5.70;3.53;;;8.90;91.30;;;;;;5035255;28;20416;-83
2020/12/15 06:06:46;;;;;;;8.13;3.70;;;8.80;91.10;;;;;;5017869;28;20120;-84
2020/12/15 06:09:17;;;;;;;8.03;4.17;;;8.90;91.20;;;;;;5035556;28;20045;-83
2020/12/15 06:11:46;;;;;;;8.90;4.20;;;8.90;91.20;;;;;;5035624;28;20037;-84
2020/12/15 06:14:14;;;;;;;7.03;3.90;;;8.90;91.20;;;;;;5017185;28;20060;-84
2020/12/15 06:16:41;;;;;;;6.70;3.73;;;8.90;91.30;;;;;;5034896;28;20489;-84
2020/12/15 06:19:09;;;;;;;7.23;4.57;;;8.90;91.30;;;;;;5034289;28;20057;-83
2020/12/15 06:21:46;;;;;;;7.00;4.13;;;8.90;91.40;;;;;;5016958;28;20029;-85
2020/12/15 06:24:22;;;;;;;5.93;4.30;;;8.80;91.50;;;;;;5036028;28;20430;-84
2020/12/15 06:26:54;;;;;;;7.73;4.33;;;8.90;91.60;;;;;;5035992;28;20031;-83
2020/12/15 06:29:27;;;;;;;7.27;4.20;;;8.90;91.70;;;;;;5035247;28;20025;-84
2020/12/15 06:31:54;;;;;;;7.77;4.00;;;8.90;91.80;;;;;;5035917;28;20052;-84
2020/12/15 06:34:25;;;;;;;10.17;4.63;;;8.90;91.70;;;;;;5018437;28;20030;-84
2020/12/15 06:36:51;;;;;;;9.07;4.30;;;8.90;91.70;;;;;;5036271;28;20033;-83
2020/12/15 06:39:17;;;;;;;7.20;4.00;;;8.90;91.80;;;;;;5035751;28;20067;-84
2020/12/15 06:41:42;;;;;;;7.63;4.50;;;8.90;91.80;;;;;;5018148;28;20061;-84
2020/12/15 06:44:08;;;;;;;7.73;4.40;;;8.90;91.80;;;;;;5036008;28;20539;-84
2020/12/15 06:46:34;;;;;;;7.53;4.23;;;8.90;91.70;;;;;;5035569;28;20470;-84
2020/12/15 06:49:09;;;;;;;7.27;4.83;;;8.90;92.00;;;;;;5034787;28;20026;-84
2020/12/15 06:51:35;;;;;;;7.87;4.90;;;8.90;92.00;;;;;;5035314;28;20489;-83
2020/12/15 06:54:03;;;;;;;6.20;3.97;;;8.80;92.10;;;;;;5017180;28;20026;-83
2020/12/15 06:56:29;;;;;;;7.87;4.70;;;8.80;92.20;;;;;;5017719;28;20021;-84
2020/12/15 06:59:06;;;;;;;7.83;4.80;;;8.90;92.20;;;;;;5035899;28;20014;-84
2020/12/15 07:01:33;;;;;;;7.13;4.47;;;8.90;92.30;;;;;;5036070;28;20230;-84
2020/12/15 07:04:01;;;;;;;6.53;4.37;;;8.90;92.30;;;;;;5017800;28;20026;-84
2020/12/15 07:06:27;;;;;;;12.13;5.20;;;9.00;92.30;;;;;;5036414;28;20025;-84
2020/12/15 07:09:00;;;;;;;7.67;4.80;;;8.90;92.50;;;;;;5036128;28;20068;-84
2020/12/15 07:11:27;;;;;;;9.77;4.57;;;8.90;92.50;;;;;;5018264;28;20029;-84
2020/12/15 07:13:57;;;;;;;8.87;5.20;;;8.90;92.50;;;;;;5036433;28;20025;-84
2020/12/15 07:16:23;;;;;;;9.87;5.23;;;9.00;92.50;;;;;;5018472;28;20026;-84
2020/12/15 07:18:51;;;;;;;7.93;5.10;;;8.90;92.50;;;;;;5018367;28;20022;-83
2020/12/15 07:21:21;;;;;;;9.37;5.33;;;8.90;92.50;;;;;;5018398;28;20421;-84
2020/12/15 07:23:47;;;;;;;9.30;5.07;;;8.90;92.50;;;;;;5036309;28;20017;-84
2020/12/15 07:26:17;;;;;;;9.17;6.07;;;8.90;92.60;;;;;;5018124;28;20026;-84
2020/12/15 07:28:44;;;;;;;8.63;5.47;;;9.00;92.70;;;;;;5019358;28;20028;-84
2020/12/15 07:31:11;;;;;;;8.80;5.80;;;8.90;92.60;;;;;;5035241;28;20033;-84
2020/12/15 07:33:38;;;;;;;9.47;5.70;;;8.80;92.70;;;;;;5036224;28;20367;-84
2020/12/15 07:36:20;;;;;;;12.70;5.73;;;8.90;92.80;;;;;;5018918;28;20018;-85
2020/12/15 07:38:46;;;;;;;10.57;5.57;;;8.90;92.90;;;;;;5036717;28;20363;-84
2020/12/15 07:41:14;;;;;;;8.20;5.23;;;8.90;92.80;;;;;;5021504;28;20097;-84
2020/12/15 07:43:40;;;;;;;11.07;5.63;;;8.80;92.80;;;;;;5044452;28;20057;-84
2020/12/15 07:46:15;;;;;;;9.23;5.43;;;8.90;92.90;;;;;;5025922;28;20183;-84
2020/12/15 07:48:41;;;;;;;9.70;5.93;;;8.90;92.90;;;;;;5036275;28;20048;-84
2020/12/15 07:51:07;;;;;;;8.77;5.50;;;8.90;93.30;;;;;;5034164;28;20471;-84
2020/12/15 07:53:33;;;;;;;8.90;5.57;;;9.00;92.90;;;;;;5020549;28;20065;-84
2020/12/15 07:56:06;;;;;;;10.23;5.70;;;9.00;93.00;;;;;;5038279;28;20100;-83
2020/12/15 07:58:32;;;;;;;9.57;5.73;;;9.00;93.00;;;;;;5019981;28;20025;-83
2020/12/15 08:00:58;;;;;;;11.77;6.13;;;8.90;93.30;;;;;;5037446;28;20029;-84
2020/12/15 08:03:24;;;;;;;9.00;5.97;;;9.00;93.10;;;;;;5038093;28;20017;-84
2020/12/15 08:05:49;;;;;;;10.87;5.80;;;9.00;93.30;;;;;;5038486;28;20021;-84
2020/12/15 08:08:17;;;;;;;9.73;6.23;;;9.00;93.20;;;;;;5038038;28;20038;-84
2020/12/15 08:10:42;;;;;;;11.63;6.50;;;9.00;93.20;;;;;;5019702;28;20044;-84
2020/12/15 08:13:08;;;;;;;10.93;6.40;;;9.00;93.10;;;;;;5037806;28;20025;-84
2020/12/15 08:15:41;;;;;;;11.43;6.70;;;9.00;93.20;;;;;;5038224;28;20422;-84
2020/12/15 08:18:10;;;;;;;15.43;6.20;;;9.10;93.40;;;;;;5020105;28;20026;-84
2020/12/15 08:20:38;;;;;;;10.73;6.43;;;9.10;93.40;;;;;;5019493;28;20525;-84
2020/12/15 08:23:13;;;;;;;9.87;6.40;;;9.00;93.10;;;;;;5037550;28;20049;-84
2020/12/15 08:25:44;;;;;;;10.23;6.23;;;9.10;93.20;;;;;;5020390;28;20400;-84
2020/12/15 08:28:22;;;;;;;11.80;6.60;;;9.10;93.20;;;;;;5037749;28;20083;-83
2020/12/15 08:30:57;;;;;;;9.50;6.50;;;9.00;93.20;;;;;;5038019;28;20037;-84
2020/12/15 08:33:28;;;;;;;11.43;6.97;;;9.00;93.40;;;;;;5037813;28;20112;-84
2020/12/15 08:35:55;;;;;;;9.70;6.33;;;9.10;93.30;;;;;;5037840;28;20022;-83
2020/12/15 08:38:24;;;;;;;10.10;6.83;;;9.10;93.40;;;;;;5037381;28;20032;-84
2020/12/15 08:40:57;;;;;;;;;;;9.10;93.30;;;;;;5037615;28;20029;-84
2020/12/15 08:43:23;;;;;;;12.37;6.83;;;9.10;93.20;;;;;;5037328;28;19905;-84
2020/12/15 08:45:49;;;;;;;10.03;6.90;;;9.10;93.30;;;;;;5037891;28;20044;-84
2020/12/15 08:48:21;;;;;;;10.67;6.97;;;9.10;93.40;;;;;;5037443;28;20026;-84
2020/12/15 08:50:47;;;;;;;12.83;6.60;;;9.10;93.40;;;;;;5037203;28;20489;-84
2020/12/15 08:53:14;;;;;;;10.50;6.87;;;9.10;93.40;;;;;;5037560;28;20088;-84
2020/12/15 08:55:40;;;;;;;9.03;6.47;;;9.10;93.40;;;;;;5037701;28;20057;-84
2020/12/15 08:58:10;;;;;;;11.90;7.07;;;9.20;93.50;;;;;;5020083;28;20109;-83
2020/12/15 09:00:41;;;;;;;11.07;7.15;;;9.20;93.50;;;;;;5020007;28;20022;-84
2020/12/15 09:03:14;;;;;;;10.50;6.57;;;9.20;93.60;;;;;;5019255;28;20029;-84
2020/12/15 09:05:46;;;;;;;9.43;6.20;;;9.20;93.60;;;;;;5037775;28;20025;-84
2020/12/15 09:08:11;;;;;;;10.70;6.80;;;9.20;93.50;;;;;;5020152;28;20025;-84
2020/12/15 09:10:37;;;;;;;10.33;7.10;;;9.20;93.50;;;;;;5020283;28;20044;-85
2020/12/15 09:13:04;;;;;;;9.63;6.63;;;9.20;93.50;;;;;;5019381;28;20029;-84
2020/12/15 09:15:31;;;;;;;11.80;7.00;;;9.20;93.50;;;;;;5019613;28;20029;-84
2020/12/15 09:17:56;;;;;;;10.93;6.87;;;9.20;93.50;;;;;;5020154;28;20044;-84
2020/12/15 09:20:25;;;;;;;11.40;6.90;;;9.20;93.40;;;;;;5036754;28;20029;-84
2020/12/15 09:22:50;;;;;;;10.70;6.73;;;9.30;93.50;;;;;;5019681;28;20044;-83
2020/12/15 09:25:16;;;;;;;11.90;7.27;;;9.30;93.50;;;;;;5019763;28;20410;-84
2020/12/15 09:27:47;;;;;;;11.93;7.53;;;9.20;93.40;;;;;;5020669;28;20061;-84
2020/12/15 09:30:18;;;;;;;9.70;6.90;;;9.20;93.80;;;;;;5018765;28;20026;-84
2020/12/15 09:32:45;;;;;;;12.33;7.63;;;9.30;93.50;;;;;;5019572;28;20033;-84
2020/12/15 09:35:11;;;;;;;12.03;7.40;;;9.20;93.50;;;;;;5037520;28;20103;-84
2020/12/15 09:37:41;;;;;;;11.47;7.03;;;9.20;93.40;;;;;;5036833;28;20025;-84
2020/12/15 09:40:11;;;;;;;11.30;7.30;;;9.30;93.80;;;;;;5017778;28;20057;-84
2020/12/15 09:42:37;;;;;;;10.33;6.90;;;9.30;93.40;;;;;;5018978;28;20017;-84
2020/12/15 09:45:05;;;;;;;14.50;7.80;;;9.30;93.50;;;;;;5018997;28;20022;-84
2020/12/15 09:47:31;;;;;;;12.83;7.90;;;9.30;93.40;;;;;;5019317;28;20393;-84
2020/12/15 09:49:57;;;;;;;12.43;7.53;;;9.20;93.40;;;;;;5018199;28;20025;-83
2020/12/15 09:52:25;;;;;;;11.00;7.33;;;9.30;93.60;;;;;;5036373;28;20040;-84
2020/12/15 09:54:50;;;;;;;11.93;7.67;;;9.30;93.70;;;;;;5018740;28;20386;-84
2020/12/15 09:57:16;;;;;;;11.93;7.43;;;9.30;93.60;;;;;;5036331;28;20034;-83
2020/12/15 09:59:42;;;;;;;13.20;7.73;;;9.30;93.60;;;;;;5036440;28;20025;-83
2020/12/15 10:02:07;;;;;;;10.03;7.57;;;9.30;93.60;;;;;;5036617;28;20024;-84
2020/12/15 10:04:33;;;;;;;10.87;7.30;;;9.30;93.60;;;;;;5036762;28;20502;-84
2020/12/15 10:06:58;;;;;;;10.80;7.53;;;9.30;93.60;;;;;;5018370;28;20083;-84
2020/12/15 10:09:24;;;;;;;11.33;7.53;;;9.30;93.60;;;;;;5035661;28;20404;-83
2020/12/15 10:11:50;;;;;;;10.17;7.23;;;9.30;93.60;;;;;;5036549;28;20025;-83
2020/12/15 10:14:16;;;;;;;11.63;7.33;;;9.30;93.60;;;;;;5036032;28;20057;-84
2020/12/15 10:16:42;;;;;;;11.97;7.80;;;9.30;93.70;;;;;;5018571;28;20049;-83
2020/12/15 10:19:08;;;;;;;12.33;7.83;;;9.30;93.70;;;;;;5017997;28;20394;-84
2020/12/15 10:21:35;;;;;;;13.77;7.90;;;9.30;93.70;;;;;;5036817;28;20101;-83
2020/12/15 10:24:02;;;;;;;12.40;8.07;;;9.40;93.80;;;;;;5036751;28;20026;-84
2020/12/15 10:26:27;;;;;;;12.20;8.50;;;9.30;93.80;;;;;;5018562;28;20398;-84
2020/12/15 10:28:53;;;;;;;10.93;7.13;;;9.30;93.80;;;;;;5017869;28;20021;-83
2020/12/15 10:31:19;;;;;;;12.03;7.43;;;9.40;93.80;;;;;;5018385;28;20025;-83
2020/12/15 10:33:44;;;;;;;10.20;7.13;;;9.40;93.80;;;;;;5036487;28;20106;-84
2020/12/15 10:36:13;;;;;;;12.50;8.03;;;9.30;93.70;;;;;;5036139;28;20029;-84
2020/12/15 10:38:38;;;;;;;12.97;8.23;;;9.30;93.80;;;;;;5017872;28;20502;-84
2020/12/15 10:41:04;;;;;;;12.93;8.00;;;9.30;93.80;;;;;;5017636;28;20028;-84
2020/12/15 10:43:30;;;;;;;11.47;7.57;;;9.40;94.20;;;;;;5035954;28;20390;-83
2020/12/15 10:45:56;;;;;;;15.57;8.37;;;9.40;93.90;;;;;;5036072;28;20033;-84
2020/12/15 10:48:21;;;;;;;11.27;8.30;;;9.40;93.80;;;;;;5036015;28;20105;-83
2020/12/15 10:50:47;;;;;;;10.13;7.07;;;9.40;93.80;;;;;;5018980;28;20121;-84
2020/12/15 10:53:13;;;;;;;10.73;7.90;;;9.40;93.80;;;;;;5036371;28;20033;-84
2020/12/15 10:55:39;;;;;;;13.13;8.27;;;9.40;93.80;;;;;;5036633;28;20037;-84
2020/12/15 10:58:05;;;;;;;10.30;7.33;;;9.50;93.90;;;;;;5018608;28;20510;-84
2020/12/15 11:00:31;;;;;;;11.37;7.67;;;9.40;93.90;;;;;;5018092;28;20075;-84
2020/12/15 11:02:57;;;;;;;10.17;7.30;;;9.40;93.80;;;;;;5036854;28;20155;-84
2020/12/15 11:05:23;;;;;;;12.53;7.67;;;9.50;93.80;;;;;;5018872;28;20028;-84
2020/12/15 11:07:49;;;;;;;10.43;7.37;;;9.50;94.10;;;;;;5037248;28;20026;-84
2020/12/15 11:10:14;;;;;;;12.20;7.37;;;9.40;93.80;;;;;;5036915;28;20129;-84
2020/12/15 11:12:40;;;;;;;11.77;7.67;;;9.50;93.70;;;;;;5036915;28;20078;-84
2020/12/15 11:15:06;;;;;;;11.40;7.70;;;9.50;93.80;;;;;;5036116;28;20036;-84
2020/12/15 11:17:32;;;;;;;11.43;7.63;;;9.50;93.80;;;;;;5036572;28;20029;-84
2020/12/15 11:19:58;;;;;;;12.23;7.53;;;9.50;93.80;;;;;;5035389;28;20528;-84
2020/12/15 11:22:23;;;;;;;10.33;7.30;;;9.40;93.80;;;;;;5036364;28;20096;-84
2020/12/15 11:24:49;;;;;;;10.37;6.87;;;9.50;93.80;;;;;;5037267;28;20135;-84
2020/12/15 11:27:15;;;;;;;9.40;7.00;;;9.50;93.80;;;;;;5021212;28;20026;-84
2020/12/15 11:29:42;;;;;;;16.83;7.97;;;9.60;93.90;;;;;;5041692;28;20052;-84
2020/12/15 11:32:08;;;;;;;11.73;7.10;;;9.50;93.80;;;;;;5043177;28;20557;-84
2020/12/15 11:34:33;;;;;;;12.37;7.53;;;9.50;93.90;;;;;;5021408;28;20072;-84
2020/12/15 11:36:59;;;;;;;21.73;11.33;;;9.50;94.10;;;;;;5020889;28;20021;-84
2020/12/15 11:39:25;;;;;;;14.13;8.63;;;9.50;94.00;;;;;;5019724;28;20053;-84
2020/12/15 11:41:51;;;;;;;10.67;7.80;;;9.50;93.90;;;;;;5038388;28;20044;-84
2020/12/15 11:44:20;;;;;;;11.33;7.40;;;9.50;93.90;;;;;;5038405;28;20105;-84
2020/12/15 11:46:46;;;;;;;12.77;7.85;;;9.50;94.00;;;;;;5038373;28;20037;-84
2020/12/15 11:49:12;;;;;;;12.10;8.10;;;9.50;93.90;;;;;;5038189;28;20629;-84
2020/12/15 11:51:37;;;;;;;11.97;7.90;;;9.50;94.10;;;;;;5038139;28;20036;-84
2020/12/15 11:54:04;;;;;;;12.60;7.67;;;9.50;94.10;;;;;;5038525;28;20037;-84
2020/12/15 11:56:29;;;;;;;11.67;7.67;;;9.50;94.00;;;;;;5039015;28;20085;-84
2020/12/15 11:58:55;;;;;;;11.77;7.67;;;9.50;94.00;;;;;;5019763;28;20041;-84
2020/12/15 12:01:21;;;;;;;10.47;7.33;;;9.50;94.10;;;;;;5038151;28;20026;-84
2020/12/15 12:03:46;;;;;;;10.70;7.80;;;9.60;94.10;;;;;;5038957;28;20109;-84
2020/12/15 12:06:13;;;;;;;12.90;8.47;;;9.50;94.00;;;;;;5021545;28;20029;-84
2020/12/15 12:08:39;;;;;;;13.97;9.33;;;9.40;94.10;;;;;;5038454;28;20045;-83
2020/12/15 12:11:05;;;;;;;11.87;7.50;;;9.50;94.40;;;;;;5020077;28;20029;-84
2020/12/15 12:13:30;;;;;;;11.93;7.77;;;9.50;94.10;;;;;;5019657;28;20018;-84
2020/12/15 12:15:56;;;;;;;14.47;7.93;;;9.50;94.10;;;;;;5038148;28;20033;-84
2020/12/15 12:18:22;;;;;;;14.50;9.07;;;9.60;94.10;;;;;;5019649;28;20488;-85
2020/12/15 12:20:48;;;;;;;16.53;9.27;;;9.50;94.30;;;;;;5036269;28;20034;-85
2020/12/15 12:23:13;;;;;;;15.10;8.53;;;9.60;94.30;;;;;;5019647;28;20486;-85
2020/12/15 12:25:39;;;;;;;14.10;8.60;;;9.50;94.20;;;;;;5037927;28;20109;-85
2020/12/15 12:28:05;;;;;;;12.63;8.27;;;9.50;94.10;;;;;;5020442;28;20017;-85
2020/12/15 12:30:30;;;;;;;11.60;7.83;;;9.50;94.20;;;;;;5037201;28;20548;-84
2020/12/15 12:32:56;;;;;;;14.93;8.53;;;9.50;94.10;;;;;;5019549;28;20033;-84
2020/12/15 12:35:22;;;;;;;13.13;8.37;;;9.50;94.20;;;;;;5019969;28;20517;-85
2020/12/15 12:37:47;;;;;;;13.07;8.63;;;9.60;94.30;;;;;;5037955;28;20022;-85
2020/12/15 12:40:14;;;;;;;11.60;8.00;;;9.60;94.30;;;;;;5019619;28;20017;-85
2020/12/15 12:42:40;;;;;;;13.00;8.90;;;9.50;94.30;;;;;;5038036;28;20017;-85
2020/12/15 12:45:06;;;;;;;16.07;9.20;;;9.50;94.30;;;;;;5019905;28;20061;-85
2020/12/15 12:47:31;;;;;;;13.60;9.00;;;9.50;94.30;;;;;;5019825;28;20059;-85
2020/12/15 12:49:57;;;;;;;14.93;8.87;;;9.60;94.20;;;;;;5019867;28;20033;-85
2020/12/15 12:52:22;;;;;;;13.27;8.80;;;9.60;94.30;;;;;;5038190;28;20459;-84
2020/12/15 12:54:48;;;;;;;14.77;9.30;;;9.50;94.20;;;;;;5036975;28;20033;-84